Terminal Aerodrome Forecast
Issued by NWS Albany, NY

Home | Current Version | Previous Version | Text Only | Print | Product List | Glossary On
Versions: 1 2 3 4 5 6 7 8 9 10 11 12 13 14 15
546
FTUS41 KALY 281720
TAFALB
TAF
KALB 281720Z 2818/2918 VRB04KT P6SM VCSH FEW050 SCT120 OVC250
     FM290500 VRB03KT P6SM VCSH BKN050 BKN150
     FM290800 VRB03KT 4SM -RA BR OVC050
     FM291400 35006KT P6SM VCSH BKN050 OVC150=

USA.gov is the U.S. government's official web portal to all federal, state and local government web resources and services.